• images/banner/banner1.jpg
  • images/banner/banner2.jpg

Team Member Login

Aviation Weather

[source: ADDS]
METAR
EGVN 181650Z 06012KT CAVOK 08/04 Q1026 BLU NOSIG =
TAF EGVN 181638Z 1818/1918 07012KT 9999 FEW015 PROB40 1902/1909 SCT015 TEMPO 1908/1912 07015G25KT PROB30 TEMPO 1912/1918 -SHRA SCT018
TAF
TAF EGVN 181638Z 1818/1918 07012KT 9999 FEW015 PROB40 1902/1909 SCT015 TEMPO 1908/1912 07015G25KT PROB30 TEMPO 1912/1918 -SHRA SCT018 =